Time;durP1;ratioP1;P1;durP2;ratioP2;P2;SDS_P1;SDS_P2;PMS_P1;PMS_P2;Temp;Humidity;BMP_temperature;BMP_pressure;BME280_temperature;BME280_humidity;BME280_pressure;Samples;Min_cycle;Max_cycle;Signal;HPM_P1;HPM_P2
2023/04/25 00:02:00;;;;;;;2.40;2.20;;;11.30;99.90;;;;;;5004618;28;20160;-71
2023/04/25 00:04:26;;;;;;;3.60;2.40;;;11.40;99.90;;;;;;5015639;28;20168;-72
2023/04/25 00:06:53;;;;;;;2.33;2.13;;;11.50;99.90;;;;;;5015696;28;20602;-71
2023/04/25 00:09:19;;;;;;;2.77;1.93;;;11.40;99.90;;;;;;5015837;28;20514;-72
2023/04/25 00:11:44;;;;;;;3.87;2.10;;;11.40;99.90;;;;;;5015239;28;20945;-71
2023/04/25 00:14:10;;;;;;;3.13;2.20;;;11.40;99.90;;;;;;5015302;28;20733;-71
2023/04/25 00:16:36;;;;;;;1.90;1.63;;;11.40;99.90;;;;;;5011861;28;20602;-72
2023/04/25 00:19:04;;;;;;;4.90;2.67;;;11.30;99.90;;;;;;5013585;28;20188;-71
2023/04/25 00:21:31;;;;;;;5.27;2.13;;;11.40;99.90;;;;;;5015052;28;20167;-72
2023/04/25 00:23:57;;;;;;;3.07;1.90;;;11.20;99.90;;;;;;5015378;28;20395;-73
2023/04/25 00:26:23;;;;;;;1.83;1.70;;;11.30;99.90;;;;;;5015475;28;20857;-71
2023/04/25 00:28:48;;;;;;;3.20;2.10;;;11.40;99.90;;;;;;5015239;28;20613;-72
2023/04/25 00:31:14;;;;;;;2.50;1.70;;;11.40;99.90;;;;;;5014789;28;20670;-72
2023/04/25 00:33:40;;;;;;;5.77;4.40;;;11.50;99.90;;;;;;5014724;28;20251;-71
2023/04/25 00:36:06;;;;;;;1.97;1.87;;;11.60;99.90;;;;;;5039357;23;20619;-71
2023/04/25 00:38:32;;;;;;;2.37;1.90;;;11.50;99.90;;;;;;5033863;28;20222;-72
2023/04/25 00:40:57;;;;;;;2.13;1.80;;;11.40;99.90;;;;;;5035072;28;20411;-72
2023/04/25 00:43:26;;;;;;;1.83;1.70;;;11.40;99.90;;;;;;5035075;28;20170;-72
2023/04/25 00:45:52;;;;;;;3.10;2.30;;;11.30;99.90;;;;;;5034725;28;20281;-72
2023/04/25 00:48:18;;;;;;;1.90;1.70;;;11.20;99.90;;;;;;5034295;28;20406;-72
2023/04/25 00:50:52;;;;;;;1.67;1.57;;;11.30;99.90;;;;;;5034686;28;20409;-72
2023/04/25 00:53:18;;;;;;;2.10;1.90;;;11.30;99.90;;;;;;5034557;28;20230;-70
2023/04/25 00:55:44;;;;;;;2.30;2.00;;;11.20;99.90;;;;;;5034492;28;20493;-72
2023/04/25 00:58:10;;;;;;;2.23;1.90;;;11.20;99.90;;;;;;5034733;28;20406;-72
2023/04/25 01:00:36;;;;;;;3.23;2.20;;;11.30;99.90;;;;;;5033122;28;20223;-72
2023/04/25 01:03:03;;;;;;;3.40;2.23;;;11.20;99.90;;;;;;5032628;28;20182;-72
2023/04/25 01:05:29;;;;;;;2.60;2.20;;;11.10;99.90;;;;;;5034386;28;20442;-72
2023/04/25 01:07:54;;;;;;;2.27;2.07;;;11.10;99.90;;;;;;5034174;28;20430;-72
2023/04/25 01:10:20;;;;;;;4.13;1.97;;;11.20;99.90;;;;;;5034484;28;20172;-72
2023/04/25 01:12:46;;;;;;;2.57;2.33;;;11.30;99.90;;;;;;5034228;28;20202;-72
2023/04/25 01:15:12;;;;;;;3.00;2.70;;;11.20;99.90;;;;;;5034241;28;20174;-72
2023/04/25 01:17:39;;;;;;;2.90;2.10;;;11.30;99.90;;;;;;5033787;28;20513;-72
2023/04/25 01:20:05;;;;;;;3.57;2.90;;;11.30;99.90;;;;;;5032379;28;20317;-72
2023/04/25 01:22:32;;;;;;;3.40;2.43;;;11.30;99.90;;;;;;5034328;28;20408;-72
2023/04/25 01:24:58;;;;;;;2.97;2.17;;;11.40;99.90;;;;;;5034163;28;20406;-72
2023/04/25 01:27:25;;;;;;;3.00;2.07;;;11.30;99.90;;;;;;5033946;28;20424;-71
2023/04/25 01:29:50;;;;;;;3.17;2.90;;;11.40;99.90;;;;;;5034097;28;20402;-72
2023/04/25 01:32:17;;;;;;;2.87;2.57;;;11.40;99.90;;;;;;5032450;28;20422;-72
2023/04/25 01:34:42;;;;;;;2.30;2.10;;;11.50;99.90;;;;;;5032269;28;20424;-72
2023/04/25 01:37:08;;;;;;;3.30;3.00;;;11.40;99.90;;;;;;5033529;28;20445;-70
2023/04/25 01:39:34;;;;;;;2.63;2.43;;;11.40;99.90;;;;;;5033607;28;20198;-71
2023/04/25 01:41:59;;;;;;;2.73;2.53;;;11.40;99.90;;;;;;5033608;28;20209;-70
2023/04/25 01:44:25;;;;;;;2.57;2.07;;;11.40;99.90;;;;;;5022136;28;20523;-72
2023/04/25 01:46:51;;;;;;;3.23;2.40;;;11.40;99.90;;;;;;5013118;28;20515;-72
2023/04/25 01:49:17;;;;;;;4.53;2.80;;;11.40;99.90;;;;;;5013613;28;20410;-71
2023/04/25 01:51:43;;;;;;;2.63;2.40;;;11.30;99.90;;;;;;5013778;28;20163;-72
2023/04/25 01:54:10;;;;;;;2.63;2.20;;;11.20;99.90;;;;;;5013755;28;20167;-72
2023/04/25 01:56:37;;;;;;;4.20;2.50;;;11.20;99.90;;;;;;5014127;28;20436;-72
2023/04/25 01:59:04;;;;;;;2.27;2.07;;;11.10;99.90;;;;;;5013610;28;20449;-71
2023/04/25 02:01:29;;;;;;;5.13;3.27;;;11.00;99.90;;;;;;5015190;28;20417;-72
2023/04/25 02:03:55;;;;;;;3.10;2.30;;;11.00;99.90;;;;;;5033019;28;20405;-72
2023/04/25 02:06:21;;;;;;;3.07;2.80;;;11.10;99.90;;;;;;5033362;28;20189;-72
2023/04/25 02:08:46;;;;;;;4.97;2.93;;;11.00;99.90;;;;;;5031946;28;20167;-72
2023/04/25 02:11:12;;;;;;;3.10;2.80;;;10.90;99.90;;;;;;5033288;28;20649;-72
2023/04/25 02:13:37;;;;;;;3.33;3.03;;;10.80;99.90;;;;;;5034207;28;20250;-72
2023/04/25 02:16:03;;;;;;;2.87;2.63;;;10.90;99.90;;;;;;5033131;28;20200;-72
2023/04/25 02:18:29;;;;;;;4.20;3.10;;;10.90;99.90;;;;;;5035512;28;20254;-72
2023/04/25 02:20:54;;;;;;;2.97;2.73;;;11.00;99.90;;;;;;5032923;28;20171;-72
2023/04/25 02:23:20;;;;;;;5.10;3.23;;;11.00;99.90;;;;;;5036808;28;20166;-72
2023/04/25 02:25:45;;;;;;;3.17;2.80;;;11.10;99.90;;;;;;5036936;28;20166;-73
2023/04/25 02:28:11;;;;;;;2.83;2.33;;;11.20;99.90;;;;;;5037146;28;20200;-73
2023/04/25 02:30:37;;;;;;;3.77;2.97;;;11.20;99.90;;;;;;5018227;28;20177;-72
2023/04/25 02:33:02;;;;;;;3.03;2.50;;;11.10;99.90;;;;;;5031304;28;20182;-73
2023/04/25 02:35:28;;;;;;;3.00;2.50;;;11.10;99.90;;;;;;5037113;28;20190;-72
2023/04/25 02:37:54;;;;;;;3.33;2.27;;;11.10;99.90;;;;;;5036871;28;20301;-73
2023/04/25 02:40:19;;;;;;;3.40;2.50;;;11.00;99.90;;;;;;5035056;28;20198;-72
2023/04/25 02:42:48;;;;;;;3.47;2.57;;;11.00;99.90;;;;;;5036944;28;20186;-72
2023/04/25 02:45:14;;;;;;;3.70;2.50;;;10.90;99.90;;;;;;5036754;28;20277;-71
2023/04/25 02:47:40;;;;;;;3.07;2.50;;;10.90;99.90;;;;;;5036913;28;20929;-72
2023/04/25 02:50:06;;;;;;;4.03;2.77;;;11.00;99.90;;;;;;5036811;28;20420;-73
2023/04/25 02:52:31;;;;;;;2.70;2.10;;;11.00;99.90;;;;;;5038580;28;20172;-72
2023/04/25 02:54:57;;;;;;;3.40;2.40;;;11.00;99.90;;;;;;5035914;28;20471;-72
2023/04/25 02:57:23;;;;;;;3.30;2.30;;;10.90;99.90;;;;;;5037275;28;20229;-72
2023/04/25 02:59:48;;;;;;;2.77;2.57;;;10.70;99.90;;;;;;5040406;28;20282;-72
2023/04/25 03:02:14;;;;;;;3.27;2.30;;;10.70;99.90;;;;;;5042137;28;20209;-72
2023/04/25 03:04:39;;;;;;;2.73;2.27;;;10.70;99.90;;;;;;5040884;28;20627;-72
2023/04/25 03:07:05;;;;;;;4.10;2.57;;;10.70;99.90;;;;;;5038098;28;20187;-71
2023/04/25 03:09:31;;;;;;;2.73;2.53;;;10.60;99.90;;;;;;5038077;28;20199;-72
2023/04/25 03:11:56;;;;;;;2.57;2.37;;;10.60;99.90;;;;;;5037886;28;20187;-71
2023/04/25 03:14:22;;;;;;;2.43;2.23;;;10.60;99.90;;;;;;5038252;28;20172;-72
2023/04/25 03:16:47;;;;;;;2.50;2.30;;;10.70;99.90;;;;;;5037499;28;20224;-71
2023/04/25 03:19:15;;;;;;;3.37;2.90;;;10.60;99.90;;;;;;5037888;28;20565;-72
2023/04/25 03:21:41;;;;;;;5.63;2.47;;;10.60;99.90;;;;;;5037145;28;20167;-72
2023/04/25 03:24:07;;;;;;;3.70;2.83;;;10.50;99.90;;;;;;5038323;28;20411;-72
2023/04/25 03:26:32;;;;;;;4.30;2.73;;;10.50;99.90;;;;;;5038363;28;20245;-71
2023/04/25 03:28:58;;;;;;;2.67;2.43;;;10.50;99.90;;;;;;5037869;28;20169;-72
2023/04/25 03:31:24;;;;;;;2.47;2.27;;;10.50;99.90;;;;;;5036262;28;20270;-73
2023/04/25 03:33:49;;;;;;;3.40;2.23;;;10.50;99.90;;;;;;5037189;28;20252;-71
2023/04/25 03:36:15;;;;;;;3.33;2.30;;;10.40;99.90;;;;;;5036322;28;20222;-71
2023/04/25 03:38:43;;;;;;;2.40;2.13;;;10.20;99.90;;;;;;5037941;28;20546;-71
2023/04/25 03:41:09;;;;;;;2.77;2.57;;;10.30;99.90;;;;;;5039503;28;20255;-71
2023/04/25 03:43:34;;;;;;;2.87;2.63;;;10.30;99.90;;;;;;5036859;28;20416;-70
2023/04/25 03:46:00;;;;;;;8.33;4.43;;;10.40;99.90;;;;;;5036133;28;20188;-70
2023/04/25 03:48:26;;;;;;;5.60;5.10;;;10.30;99.90;;;;;;5035735;28;20210;-70
2023/04/25 03:50:53;;;;;;;3.67;3.10;;;10.30;99.90;;;;;;5020034;28;20182;-70
2023/04/25 03:53:18;;;;;;;4.63;4.20;;;10.40;99.90;;;;;;5017169;28;20422;-71
2023/04/25 03:55:44;;;;;;;4.70;4.30;;;10.40;99.90;;;;;;5016149;28;20404;-72
2023/04/25 03:58:09;;;;;;;5.57;5.07;;;10.40;99.90;;;;;;5015907;28;20168;-71
2023/04/25 04:00:35;;;;;;;4.87;4.37;;;10.30;99.90;;;;;;5015806;28;20209;-71
2023/04/25 04:03:01;;;;;;;5.50;5.00;;;10.40;99.90;;;;;;5029164;28;20378;-71
2023/04/25 04:05:27;;;;;;;5.57;4.73;;;10.40;99.90;;;;;;5035346;28;20955;-71
2023/04/25 04:07:53;;;;;;;5.87;5.37;;;10.40;99.90;;;;;;5035752;28;20195;-71
2023/04/25 04:10:18;;;;;;;5.50;5.07;;;10.30;99.90;;;;;;5034999;28;20406;-71
2023/04/25 04:12:44;;;;;;;5.13;4.70;;;10.30;99.90;;;;;;5035592;28;20172;-71
2023/04/25 04:15:10;;;;;;;3.73;3.43;;;10.30;99.90;;;;;;5032401;28;20191;-71
2023/04/25 04:17:35;;;;;;;4.17;3.40;;;10.20;99.90;;;;;;5035269;28;20279;-71
2023/04/25 04:20:03;;;;;;;4.03;3.57;;;9.80;99.90;;;;;;5035442;28;20553;-72
2023/04/25 04:22:28;;;;;;;4.20;3.80;;;9.80;99.90;;;;;;5035542;28;20207;-71
2023/04/25 04:24:54;;;;;;;3.90;3.50;;;9.80;99.90;;;;;;5024188;28;20449;-71
2023/04/25 04:27:21;;;;;;;5.50;4.97;;;10.00;99.90;;;;;;5015229;28;20189;-71
2023/04/25 04:29:47;;;;;;;4.87;4.40;;;10.10;99.90;;;;;;5015565;28;20175;-71
2023/04/25 04:32:13;;;;;;;4.90;3.87;;;10.10;99.90;;;;;;5022148;28;20417;-71
2023/04/25 04:34:39;;;;;;;5.17;4.70;;;10.10;99.90;;;;;;5034825;28;20267;-71
2023/04/25 04:37:06;;;;;;;3.93;3.63;;;10.10;99.90;;;;;;5034747;28;20507;-71
2023/04/25 04:39:33;;;;;;;6.13;4.43;;;10.10;99.90;;;;;;5034985;28;20184;-71
2023/04/25 04:41:58;;;;;;;3.83;3.53;;;10.10;99.90;;;;;;5035078;28;20408;-71
2023/04/25 04:44:25;;;;;;;3.90;3.17;;;10.10;99.90;;;;;;5035069;28;20828;-72
2023/04/25 04:46:50;;;;;;;3.93;2.83;;;10.20;99.90;;;;;;5034616;28;20605;-71
2023/04/25 04:49:17;;;;;;;3.37;3.07;;;10.20;99.90;;;;;;5034476;28;20425;-70
2023/04/25 04:51:46;;;;;;;5.10;2.93;;;10.00;99.90;;;;;;5034752;28;20174;-71
2023/04/25 04:54:12;;;;;;;5.23;3.60;;;10.20;99.90;;;;;;5033485;28;20503;-71
2023/04/25 04:56:38;;;;;;;3.40;3.10;;;10.40;99.90;;;;;;5034390;28;20526;-71
2023/04/25 04:59:03;;;;;;;3.47;3.17;;;10.40;99.90;;;;;;5034380;28;20257;-70
2023/04/25 05:01:32;;;;;;;3.23;2.93;;;10.40;99.90;;;;;;5034229;28;20163;-71
2023/04/25 05:04:00;;;;;;;4.50;3.30;;;10.60;99.90;;;;;;5034091;28;20179;-71
2023/04/25 05:06:26;;;;;;;3.40;3.10;;;10.60;99.90;;;;;;5034190;28;20427;-71
2023/04/25 05:08:52;;;;;;;4.37;3.37;;;10.60;99.90;;;;;;5034234;28;20414;-71
2023/04/25 05:11:18;;;;;;;2.73;2.53;;;10.60;99.90;;;;;;5034404;28;20420;-71
2023/04/25 05:13:45;;;;;;;4.80;3.37;;;10.70;99.90;;;;;;5034058;28;20413;-70
2023/04/25 05:16:11;;;;;;;4.30;3.90;;;10.70;99.90;;;;;;5034149;28;20471;-69
2023/04/25 05:18:36;;;;;;;4.47;2.93;;;10.60;99.90;;;;;;5033565;28;20460;-69
2023/04/25 05:21:02;;;;;;;3.20;2.90;;;10.70;99.90;;;;;;5033869;28;20406;-70
2023/04/25 05:23:29;;;;;;;3.37;3.00;;;10.90;99.90;;;;;;5033467;28;20569;-71
2023/04/25 05:25:54;;;;;;;4.70;3.77;;;10.70;99.90;;;;;;5033996;28;20195;-72
2023/04/25 05:28:21;;;;;;;5.90;3.67;;;10.90;99.90;;;;;;5024211;28;21041;-71
2023/04/25 05:30:46;;;;;;;5.80;4.10;;;11.00;99.90;;;;;;5020557;28;20576;-72
2023/04/25 05:33:12;;;;;;;3.40;3.10;;;11.10;99.90;;;;;;5012768;28;20418;-72
2023/04/25 05:35:37;;;;;;;4.37;3.67;;;11.00;99.90;;;;;;5031873;28;20182;-71
2023/04/25 05:38:03;;;;;;;4.40;4.00;;;11.00;99.90;;;;;;5033417;28;20181;-72
2023/04/25 05:40:28;;;;;;;3.63;3.33;;;10.90;99.90;;;;;;5032627;28;20205;-72
2023/04/25 05:42:54;;;;;;;4.70;3.60;;;10.90;99.90;;;;;;5033536;28;20168;-72
2023/04/25 05:45:19;;;;;;;6.67;3.77;;;10.90;99.90;;;;;;5033860;28;20171;-71
2023/04/25 05:47:45;;;;;;;3.87;3.47;;;10.80;99.90;;;;;;5033458;28;20247;-72
2023/04/25 05:50:10;;;;;;;4.40;3.50;;;10.80;99.90;;;;;;5033326;28;20181;-71
2023/04/25 05:52:36;;;;;;;3.87;3.47;;;10.70;99.90;;;;;;5030242;28;20647;-73
2023/04/25 05:55:02;;;;;;;5.93;3.47;;;10.60;99.90;;;;;;5032431;28;20267;-71
2023/04/25 05:57:27;;;;;;;6.90;3.87;;;10.40;99.90;;;;;;5033390;28;20197;-71
2023/04/25 05:59:53;;;;;;;4.13;2.90;;;10.40;99.90;;;;;;5032221;28;20237;-72
2023/04/25 06:02:21;;;;;;;3.20;2.80;;;10.30;99.90;;;;;;5031946;28;20650;-72
2023/04/25 06:04:47;;;;;;;3.00;2.70;;;10.20;99.90;;;;;;5032965;28;20405;-72
2023/04/25 06:07:13;;;;;;;3.10;2.63;;;10.20;99.90;;;;;;5033066;28;20975;-72
2023/04/25 06:09:39;;;;;;;3.90;3.47;;;10.20;99.90;;;;;;5032086;28;20405;-72
2023/04/25 06:12:06;;;;;;;2.80;2.60;;;10.30;99.90;;;;;;5033209;28;20170;-72
2023/04/25 06:14:31;;;;;;;5.30;3.03;;;10.30;99.90;;;;;;5033159;28;20412;-73
2023/04/25 06:16:57;;;;;;;3.50;2.90;;;10.40;99.90;;;;;;5020709;28;20440;-74
2023/04/25 06:19:22;;;;;;;3.00;2.80;;;10.40;99.90;;;;;;5012992;28;20563;-75
2023/04/25 06:21:48;;;;;;;3.47;3.00;;;10.50;99.90;;;;;;5014780;28;20179;-74
2023/04/25 06:24:13;;;;;;;5.00;3.60;;;10.90;99.90;;;;;;5033551;28;20657;-72
2023/04/25 06:26:39;;;;;;;4.93;3.27;;;11.00;99.90;;;;;;5032664;28;20198;-71
2023/04/25 06:29:05;;;;;;;3.67;3.00;;;11.20;99.90;;;;;;5032710;28;20179;-71
2023/04/25 06:31:32;;;;;;;3.43;3.07;;;11.30;99.90;;;;;;5032830;28;20203;-71
2023/04/25 06:33:58;;;;;;;4.60;2.90;;;11.30;99.90;;;;;;5033752;28;20200;-71
2023/04/25 06:36:25;;;;;;;6.10;3.27;;;10.90;99.90;;;;;;5059673;23;20488;-75
2023/04/25 06:38:52;;;;;;;3.70;3.40;;;11.10;99.90;;;;;;5052571;28;20209;-76
2023/04/25 06:41:17;;;;;;;4.57;3.30;;;10.90;99.90;;;;;;5051796;28;20948;-75
2023/04/25 06:43:43;;;;;;;3.30;3.00;;;10.80;99.90;;;;;;5052831;28;20407;-76
2023/04/25 06:46:09;;;;;;;4.07;3.33;;;10.80;99.90;;;;;;5052915;28;20302;-75
2023/04/25 06:48:34;;;;;;;3.20;2.60;;;11.00;99.90;;;;;;5055575;28;20163;-76
2023/04/25 06:51:00;;;;;;;3.67;3.37;;;11.10;99.90;;;;;;5062837;28;20163;-73
2023/04/25 06:53:26;;;;;;;6.83;3.50;;;10.90;99.90;;;;;;5054174;28;20179;-73
2023/04/25 06:55:51;;;;;;;3.40;3.10;;;10.90;99.90;;;;;;5054260;28;20648;-73
2023/04/25 06:58:17;;;;;;;4.10;3.33;;;10.90;99.90;;;;;;5053848;28;20197;-74
2023/04/25 07:00:43;;;;;;;4.23;3.83;;;10.90;99.90;;;;;;5054316;28;20194;-74
2023/04/25 07:03:09;;;;;;;4.67;3.50;;;10.90;99.90;;;;;;5052496;28;20422;-74
2023/04/25 07:05:35;;;;;;;3.40;3.10;;;10.80;99.90;;;;;;5052383;28;20600;-73
2023/04/25 07:08:00;;;;;;;3.00;2.80;;;10.90;99.90;;;;;;5067360;28;20514;-76
2023/04/25 07:10:26;;;;;;;4.60;2.97;;;10.90;99.90;;;;;;5052508;28;20534;-74
2023/04/25 07:12:51;;;;;;;3.90;3.60;;;10.70;99.90;;;;;;5052319;28;20586;-76
2023/04/25 07:15:17;;;;;;;3.40;3.10;;;10.90;99.90;;;;;;5052271;28;20177;-74
2023/04/25 07:17:43;;;;;;;3.53;3.23;;;10.70;99.90;;;;;;5052167;28;20663;-75
2023/04/25 07:20:09;;;;;;;3.40;3.13;;;10.50;99.90;;;;;;5052102;28;20336;-76
2023/04/25 07:22:35;;;;;;;4.40;4.10;;;10.60;99.90;;;;;;5052440;28;20159;-75
2023/04/25 07:25:01;;;;;;;4.23;3.83;;;10.80;99.90;;;;;;5053752;28;20415;-77
2023/04/25 07:27:27;;;;;;;5.97;4.10;;;10.70;99.90;;;;;;5053122;28;20217;-75
2023/04/25 07:29:53;;;;;;;4.50;4.10;;;10.80;99.90;;;;;;5052150;28;20269;-75
2023/04/25 07:32:19;;;;;;;4.67;3.87;;;10.70;99.90;;;;;;5050077;28;20635;-74
2023/04/25 07:34:44;;;;;;;4.23;3.83;;;10.70;99.90;;;;;;5051799;28;20411;-74
2023/04/25 07:37:10;;;;;;;4.43;4.03;;;10.90;99.90;;;;;;5052536;28;20278;-74
2023/04/25 07:39:36;;;;;;;4.50;4.10;;;10.90;99.90;;;;;;5052858;28;20189;-75
2023/04/25 07:42:03;;;;;;;4.80;4.23;;;10.70;99.90;;;;;;5052111;28;20180;-73
2023/04/25 07:44:30;;;;;;;5.20;4.70;;;10.30;99.90;;;;;;5067364;28;20455;-74
2023/04/25 07:46:56;;;;;;;4.80;4.33;;;10.50;99.90;;;;;;5040276;28;20461;-76
2023/04/25 07:49:21;;;;;;;4.57;4.17;;;10.70;99.90;;;;;;5037662;28;20409;-76
2023/04/25 07:51:47;;;;;;;4.10;3.77;;;10.70;99.90;;;;;;5038070;28;20175;-77
2023/04/25 07:54:15;;;;;;;4.30;3.90;;;10.80;99.90;;;;;;5037673;28;20176;-75
2023/04/25 07:56:41;;;;;;;5.93;4.40;;;10.90;99.90;;;;;;5036314;28;20194;-74
2023/04/25 07:59:06;;;;;;;4.70;4.30;;;10.90;99.90;;;;;;5034683;28;20590;-75
2023/04/25 08:01:34;;;;;;;5.27;4.87;;;11.00;99.90;;;;;;5035924;28;20201;-75
2023/04/25 08:04:00;;;;;;;5.23;4.70;;;10.90;99.90;;;;;;5055697;28;20170;-75
2023/04/25 08:06:25;;;;;;;5.83;5.23;;;11.10;99.90;;;;;;5056588;28;20431;-77
2023/04/25 08:08:51;;;;;;;5.93;5.43;;;11.20;99.90;;;;;;5056925;28;20164;-75
2023/04/25 08:11:17;;;;;;;4.87;4.37;;;11.20;99.90;;;;;;5074144;28;20174;-75
2023/04/25 08:13:42;;;;;;;6.23;5.43;;;11.10;99.90;;;;;;5056309;28;20163;-76
2023/04/25 08:16:08;;;;;;;6.30;5.70;;;11.20;99.90;;;;;;5043966;28;20164;-76
2023/04/25 08:18:33;;;;;;;4.77;4.20;;;11.20;99.90;;;;;;5035185;28;20225;-74
2023/04/25 08:20:59;;;;;;;6.07;4.93;;;10.80;99.90;;;;;;5042116;28;20292;-76
2023/04/25 08:23:25;;;;;;;4.83;4.40;;;10.90;99.90;;;;;;5055862;28;20160;-77
2023/04/25 08:25:51;;;;;;;5.83;5.20;;;10.80;99.90;;;;;;5054925;28;20163;-77
2023/04/25 08:28:16;;;;;;;6.50;5.20;;;10.80;99.90;;;;;;5054646;28;20191;-75
2023/04/25 08:30:42;;;;;;;5.50;5.00;;;10.90;99.90;;;;;;5055183;28;20440;-77
2023/04/25 08:33:07;;;;;;;5.23;4.83;;;10.80;99.90;;;;;;5054484;28;20173;-75
2023/04/25 08:35:33;;;;;;;5.43;4.93;;;10.80;99.90;;;;;;5054637;28;20170;-76
2023/04/25 08:37:59;;;;;;;4.90;4.37;;;10.70;99.90;;;;;;5054557;28;20197;-76
2023/04/25 08:40:29;;;;;;;4.60;4.20;;;10.70;99.90;;;;;;5054605;28;20533;-75
2023/04/25 08:42:57;;;;;;;5.67;5.17;;;10.70;99.90;;;;;;5054947;28;20143;-75
2023/04/25 08:45:22;;;;;;;5.87;5.27;;;10.70;99.90;;;;;;5069844;28;20413;-74
2023/04/25 08:47:52;;;;;;;4.60;4.20;;;10.80;99.90;;;;;;5054484;28;21031;-76
2023/04/25 08:50:21;;;;;;;4.70;4.27;;;10.60;99.90;;;;;;5054247;28;20167;-76
2023/04/25 08:52:47;;;;;;;4.50;4.10;;;10.70;99.90;;;;;;5054531;28;20402;-76
2023/04/25 08:55:14;;;;;;;5.10;4.70;;;10.70;99.90;;;;;;5055186;28;20801;-74
2023/04/25 08:57:42;;;;;;;5.73;5.10;;;10.80;99.90;;;;;;5053240;28;20477;-75
2023/04/25 09:00:09;;;;;;;6.50;4.77;;;10.90;99.90;;;;;;5054328;28;20445;-74
2023/04/25 09:02:35;;;;;;;5.37;4.93;;;10.70;99.90;;;;;;5054648;28;20448;-76
2023/04/25 09:05:04;;;;;;;7.00;5.00;;;10.80;99.90;;;;;;5054693;28;20426;-75
2023/04/25 09:07:30;;;;;;;5.63;5.10;;;10.80;99.90;;;;;;5054919;28;20433;-72
2023/04/25 09:09:55;;;;;;;4.40;4.00;;;10.80;99.90;;;;;;5054638;28;20389;-75
2023/04/25 09:12:22;;;;;;;5.60;4.43;;;10.80;99.90;;;;;;5055171;28;20486;-72
2023/04/25 09:15:08;;;;;;;6.27;5.63;;;10.70;99.90;;;;;;5054698;28;20178;-74
2023/04/25 09:17:33;;;;;;;5.20;4.80;;;10.70;99.90;;;;;;5054037;28;20438;-73
2023/04/25 09:20:13;;;;;;;8.27;5.43;;;10.60;99.90;;;;;;5054184;28;20454;-72
2023/04/25 09:22:39;;;;;;;9.00;5.50;;;10.40;99.90;;;;;;5054457;28;20173;-74
2023/04/25 09:25:12;;;;;;;5.60;5.07;;;10.50;99.90;;;;;;5054209;28;20402;-74
2023/04/25 09:27:50;;;;;;;6.30;4.93;;;10.30;99.90;;;;;;5054184;28;20174;-73
2023/04/25 09:30:16;;;;;;;4.73;3.87;;;10.10;99.90;;;;;;5054685;28;20791;-75
2023/04/25 09:32:43;;;;;;;6.03;4.53;;;10.40;99.90;;;;;;5053016;28;20547;-75
2023/04/25 09:35:09;;;;;;;5.07;4.57;;;10.50;99.90;;;;;;5069301;28;20181;-75
2023/04/25 09:37:35;;;;;;;5.50;5.00;;;10.70;99.90;;;;;;5064687;28;20547;-75
2023/04/25 09:40:05;;;;;;;5.70;5.10;;;10.90;99.90;;;;;;5034469;28;20193;-75
2023/04/25 09:42:31;;;;;;;6.87;5.40;;;10.80;99.90;;;;;;5033179;28;20158;-74
2023/04/25 09:44:58;;;;;;;7.07;5.67;;;11.00;99.90;;;;;;5034684;28;20787;-75
2023/04/25 09:47:26;;;;;;;8.17;6.20;;;11.00;99.90;;;;;;5034380;28;20433;-75
2023/04/25 09:49:53;;;;;;;6.63;5.93;;;11.10;99.90;;;;;;5034489;28;20406;-75
2023/04/25 09:52:23;;;;;;;6.73;5.60;;;11.00;99.90;;;;;;5034185;28;20726;-75
2023/04/25 09:54:50;;;;;;;5.50;5.00;;;10.90;99.90;;;;;;5032960;28;20416;-75
2023/04/25 09:57:20;;;;;;;6.03;4.93;;;10.90;99.90;;;;;;5034341;28;20425;-76
2023/04/25 09:59:50;;;;;;;4.60;4.30;;;10.90;99.90;;;;;;5034391;28;20460;-75
2023/04/25 10:02:21;;;;;;;5.10;4.70;;;11.00;99.90;;;;;;5039293;28;20397;-75
2023/04/25 10:04:54;;;;;;;5.73;4.50;;;10.70;99.90;;;;;;5055138;28;20394;-76
2023/04/25 10:07:25;;;;;;;8.03;4.23;;;10.70;99.90;;;;;;5055053;28;20519;-75
2023/04/25 10:09:59;;;;;;;4.03;3.70;;;10.70;99.90;;;;;;5056983;28;20388;-74
2023/04/25 10:12:25;;;;;;;4.20;3.70;;;10.50;99.90;;;;;;5056225;28;20475;-76
2023/04/25 10:14:52;;;;;;;3.80;3.00;;;10.50;99.90;;;;;;5054740;28;20438;-76
2023/04/25 10:17:19;;;;;;;6.03;3.63;;;10.30;99.90;;;;;;5038279;28;20454;-74
2023/04/25 10:19:49;;;;;;;3.47;2.80;;;10.30;99.90;;;;;;5052057;28;20472;-74
2023/04/25 10:22:20;;;;;;;2.93;2.73;;;10.40;99.90;;;;;;5054143;28;20405;-74
2023/04/25 10:24:46;;;;;;;3.13;2.10;;;10.20;99.90;;;;;;5053806;28;20385;-74
2023/04/25 10:27:13;;;;;;;4.53;2.47;;;9.80;99.90;;;;;;5054496;28;20506;-74
2023/04/25 10:29:41;;;;;;;2.33;2.13;;;9.80;99.90;;;;;;5055302;28;20474;-73
2023/04/25 10:32:08;;;;;;;2.40;2.20;;;9.90;99.90;;;;;;5054378;28;20535;-73
2023/04/25 10:34:41;;;;;;;3.20;2.53;;;9.90;99.90;;;;;;5055041;28;20507;-74
2023/04/25 10:37:11;;;;;;;2.77;2.57;;;9.80;99.90;;;;;;5055134;28;20444;-74
2023/04/25 10:39:41;;;;;;;2.60;2.40;;;9.80;99.90;;;;;;5054708;28;20447;-74
2023/04/25 10:42:07;;;;;;;3.40;3.10;;;9.70;99.90;;;;;;5069391;28;20409;-74
2023/04/25 10:44:36;;;;;;;3.63;3.30;;;9.60;99.90;;;;;;5053601;28;20455;-74
2023/04/25 10:47:05;;;;;;;2.97;2.73;;;9.70;99.90;;;;;;5069246;28;20423;-75
2023/04/25 10:49:43;;;;;;;2.00;1.90;;;9.80;99.90;;;;;;5053043;28;20414;-74
2023/04/25 10:52:16;;;;;;;1.97;1.77;;;9.90;99.90;;;;;;5053740;28;20408;-74
2023/04/25 10:54:48;;;;;;;2.50;2.30;;;10.00;99.90;;;;;;5053408;28;20779;-74
2023/04/25 10:57:30;;;;;;;3.90;2.83;;;9.40;99.90;;;;;;5053003;28;20411;-74
2023/04/25 11:00:15;;;;;;;3.77;2.80;;;9.30;99.90;;;;;;5052995;28;20466;-74
2023/04/25 11:02:45;;;;;;;4.07;3.60;;;9.20;99.90;;;;;;5052758;28;20416;-74
2023/04/25 11:05:17;;;;;;;5.03;4.53;;;9.10;99.90;;;;;;5052575;28;20398;-74
2023/04/25 11:07:50;;;;;;;6.57;4.80;;;9.10;99.90;;;;;;5068144;28;20435;-73
2023/04/25 11:10:16;;;;;;;3.57;3.27;;;9.20;99.90;;;;;;5052997;28;20471;-74
2023/04/25 11:12:41;;;;;;;3.97;3.57;;;9.30;99.90;;;;;;5053041;28;20436;-74
2023/04/25 11:15:08;;;;;;;3.23;2.77;;;9.30;99.90;;;;;;5052723;28;20183;-74
2023/04/25 11:17:34;;;;;;;4.10;2.97;;;9.30;99.90;;;;;;5052250;28;20182;-74
2023/04/25 11:20:00;;;;;;;3.73;3.43;;;9.10;99.90;;;;;;5053288;28;20582;-74
2023/04/25 11:22:27;;;;;;;4.40;3.40;;;9.20;99.90;;;;;;5071912;28;20407;-73
2023/04/25 11:24:53;;;;;;;4.63;4.10;;;9.40;99.90;;;;;;5056644;28;20411;-74
2023/04/25 11:27:18;;;;;;;4.93;4.40;;;9.40;99.90;;;;;;5071721;28;20535;-74
2023/04/25 11:29:44;;;;;;;5.13;4.63;;;9.50;99.90;;;;;;5056613;28;20537;-74
2023/04/25 11:32:10;;;;;;;2.87;2.67;;;9.60;99.90;;;;;;5054065;28;20171;-74
2023/04/25 11:34:35;;;;;;;3.03;2.80;;;9.60;99.90;;;;;;5056445;28;20985;-72
2023/04/25 11:37:02;;;;;;;3.80;3.30;;;9.90;99.90;;;;;;5056378;28;20288;-75
2023/04/25 11:39:28;;;;;;;4.50;3.10;;;10.20;99.90;;;;;;5056603;28;20568;-75
2023/04/25 11:41:54;;;;;;;3.93;3.47;;;10.30;99.90;;;;;;5056720;28;20393;-78
2023/04/25 11:44:21;;;;;;;3.60;3.30;;;10.50;99.90;;;;;;5057519;28;20399;-76
2023/04/25 11:46:47;;;;;;;2.90;2.30;;;10.30;99.90;;;;;;5054634;28;20864;-72
2023/04/25 11:49:14;;;;;;;2.80;2.60;;;10.20;99.90;;;;;;5037886;28;20553;-75
2023/04/25 11:51:48;;;;;;;3.17;2.90;;;10.30;99.90;;;;;;5037093;28;20412;-75
2023/04/25 11:54:14;;;;;;;3.50;3.20;;;10.70;99.90;;;;;;5036310;28;20386;-74
2023/04/25 11:56:44;;;;;;;4.50;4.10;;;10.50;99.90;;;;;;5036061;28;20529;-75
2023/04/25 11:59:10;;;;;;;4.20;3.90;;;10.40;99.90;;;;;;5034774;28;20535;-75
2023/04/25 12:01:41;;;;;;;4.13;3.73;;;10.20;99.90;;;;;;5034457;28;20410;-74
2023/04/25 12:04:33;;;;;;;4.03;3.70;;;10.20;99.90;;;;;;5055389;28;20425;-74
2023/04/25 12:07:00;;;;;;;4.50;4.10;;;10.50;99.90;;;;;;5054367;28;20463;-71
2023/04/25 12:09:33;;;;;;;4.37;3.87;;;10.80;99.90;;;;;;5055714;28;20935;-74
2023/04/25 12:12:03;;;;;;;4.80;4.30;;;11.10;99.90;;;;;;5055839;28;20547;-74
2023/04/25 12:14:31;;;;;;;4.50;4.10;;;11.30;99.90;;;;;;5055329;28;20451;-76
2023/04/25 12:16:58;;;;;;;4.80;4.37;;;11.00;99.90;;;;;;5068855;28;20816;-74
2023/04/25 12:19:24;;;;;;;5.00;4.60;;;10.90;99.90;;;;;;5055692;28;20444;-77
2023/04/25 12:21:51;;;;;;;5.40;4.90;;;11.10;99.90;;;;;;5055291;28;20402;-74
2023/04/25 12:24:18;;;;;;;5.37;4.87;;;11.10;99.90;;;;;;5055438;28;20428;-74
2023/04/25 12:27:04;;;;;;;5.57;5.07;;;11.20;99.90;;;;;;5051905;28;20431;-75
2023/04/25 12:29:32;;;;;;;4.63;4.23;;;11.10;99.90;;;;;;5036062;28;20929;-76
2023/04/25 12:31:58;;;;;;;5.43;4.93;;;11.20;99.90;;;;;;5036615;28;20410;-75
2023/04/25 12:34:24;;;;;;;5.10;4.70;;;11.30;99.90;;;;;;5055029;28;20409;-76
2023/04/25 12:36:51;;;;;;;4.87;4.40;;;11.40;99.90;;;;;;5067951;23;20552;-73
2023/04/25 12:39:24;;;;;;;4.77;4.10;;;11.00;99.90;;;;;;5037162;28;20502;-73
2023/04/25 12:41:52;;;;;;;5.80;5.30;;;11.20;99.90;;;;;;5036826;28;20402;-74
2023/04/25 12:44:17;;;;;;;5.97;5.17;;;11.40;99.90;;;;;;5054839;28;20495;-73
2023/04/25 12:46:43;;;;;;;7.63;6.60;;;11.70;99.90;;;;;;5054946;28;20850;-72